createdAt,value
2019-02-17T05:00:46.712Z,94.02
2019-02-17T05:01:39.637Z,95.18
2019-02-17T05:02:40.360Z,95.18
2019-02-17T05:03:40.019Z,95.07
2019-02-17T05:04:40.184Z,95.07
2019-02-17T05:05:40.428Z,95.78
2019-02-17T05:06:40.938Z,94.93
2019-02-17T05:07:41.765Z,95.46
2019-02-17T05:08:40.969Z,95.14
2019-02-17T05:09:41.090Z,94.09
2019-02-17T05:10:41.247Z,94.19
2019-02-17T05:11:41.434Z,94.61
2019-02-17T05:12:41.646Z,94.72
2019-02-17T05:13:41.869Z,94.82
2019-02-17T05:14:42.038Z,94.40
2019-02-17T05:15:42.350Z,94.19
2019-02-17T05:16:42.368Z,93.45
2019-02-17T05:17:42.497Z,93.07
2019-02-17T05:18:43.393Z,93.49
2019-02-17T05:19:42.896Z,93.18
2019-02-17T05:20:43.096Z,93.13
2019-02-17T05:21:43.235Z,93.28
2019-02-17T05:22:43.421Z,92.75
2019-02-17T05:23:43.555Z,92.96
2019-02-17T05:24:43.731Z,92.86
2019-02-17T05:25:43.963Z,93.60
2019-02-17T05:26:44.040Z,92.96
2019-02-17T05:27:44.232Z,92.54
2019-02-17T05:28:45.263Z,92.11
2019-02-17T05:29:44.622Z,92.43
2019-02-17T05:30:53.037Z,92.18
2019-02-17T05:31:47.950Z,93.81
2019-02-17T05:32:45.172Z,93.38
2019-02-17T05:33:45.293Z,93.24
2019-02-17T05:34:45.468Z,92.33
2019-02-17T05:35:45.681Z,92.60
2019-02-17T05:36:45.821Z,92.43
2019-02-17T05:37:45.961Z,92.11
2019-02-17T05:38:46.198Z,92.01
2019-02-17T05:39:46.299Z,91.80
2019-02-17T05:40:46.401Z,92.16
2019-02-17T05:41:46.597Z,91.80
2019-02-17T05:42:47.212Z,92.29
2019-02-17T05:43:47.004Z,92.54
2019-02-17T05:44:47.212Z,92.22
2019-02-17T05:45:47.361Z,92.33
2019-02-17T05:46:47.563Z,92.33
2019-02-17T05:47:47.818Z,91.80
2019-02-17T05:48:47.932Z,90.74
2019-02-17T05:49:48.134Z,90.74
2019-02-17T05:50:48.367Z,89.79
2019-02-17T05:51:48.474Z,89.62
2019-02-17T05:52:48.767Z,89.26
2019-02-17T05:53:48.936Z,90.04
2019-02-17T05:54:50.471Z,89.89
2019-02-17T05:55:50.396Z,90.67
2019-02-17T05:56:49.592Z,91.63
2019-02-17T05:57:49.865Z,92.54
2019-02-17T05:58:49.777Z,94.55
2019-02-17T05:59:49.964Z,95.92
2019-02-17T06:00:50.150Z,96.30
2019-02-17T06:01:50.513Z,96.37
2019-02-17T06:02:50.617Z,96.68
2019-02-17T06:03:50.807Z,96.58
2019-02-17T06:04:50.976Z,97.17
2019-02-17T06:05:51.323Z,96.95
2019-02-17T06:06:51.315Z,97.55
2019-02-17T06:07:51.464Z,97.33
2019-02-17T06:08:51.751Z,96.85
2019-02-17T06:09:51.860Z,96.85
2019-02-17T06:10:51.926Z,96.22
2019-02-17T06:11:52.256Z,96.00
2019-02-17T06:12:52.209Z,95.79
2019-02-17T06:13:52.365Z,94.74
2019-02-17T06:14:52.449Z,94.95
2019-02-17T06:15:52.671Z,95.16
2019-02-17T06:16:52.918Z,94.25
2019-02-17T06:17:54.192Z,93.47
2019-02-17T06:18:53.261Z,92.41
2019-02-17T06:19:53.512Z,92.35
2019-02-17T06:20:53.662Z,92.99
2019-02-17T06:21:53.953Z,92.46
2019-02-17T06:22:54.078Z,92.77
2019-02-17T06:23:54.495Z,92.14
2019-02-17T06:24:54.879Z,92.77
2019-02-17T06:25:54.933Z,93.51
2019-02-17T06:26:54.981Z,92.03
2019-02-17T06:27:55.084Z,92.35
2019-02-17T06:28:55.410Z,92.24
2019-02-17T06:29:55.576Z,92.03
2019-02-17T06:30:55.818Z,92.24
2019-02-17T06:31:55.998Z,92.24
2019-02-17T06:32:56.221Z,92.10
2019-02-17T06:33:56.335Z,92.03
2019-02-17T06:34:56.692Z,91.82
2019-02-17T06:35:56.704Z,92.35
2019-02-17T06:36:56.945Z,92.77
2019-02-17T06:37:57.179Z,92.83
2019-02-17T06:38:57.357Z,92.20
2019-02-17T06:39:57.595Z,92.20
2019-02-17T06:40:57.736Z,92.10
2019-02-17T06:41:57.921Z,92.10
2019-02-17T06:42:59.072Z,92.31
2019-02-17T06:43:58.171Z,91.89
2019-02-17T06:44:58.435Z,91.99
2019-02-17T06:45:59.237Z,91.67
2019-02-17T06:46:58.652Z,91.25
2019-02-17T06:47:58.968Z,91.04
2019-02-17T06:48:58.974Z,91.25
2019-02-17T06:49:59.195Z,90.52
2019-02-17T06:50:59.475Z,89.98
2019-02-17T06:51:59.518Z,89.88
2019-02-17T06:52:59.641Z,89.14
2019-02-17T06:53:59.918Z,89.14
2019-02-17T06:55:00.264Z,89.14
2019-02-17T06:56:00.443Z,88.09
2019-02-17T06:57:00.647Z,88.82
2019-02-17T06:58:00.625Z,88.51
2019-02-17T06:59:01.580Z,89.63
2019-02-17T07:00:01.095Z,90.79
2019-02-17T07:01:01.391Z,91.00
2019-02-17T07:02:01.477Z,91.74
2019-02-17T07:03:02.205Z,91.91
2019-02-17T07:04:02.247Z,91.38
2019-02-17T07:05:02.440Z,90.96
2019-02-17T07:06:02.207Z,90.81
2019-02-17T07:07:02.895Z,90.50
2019-02-17T07:08:03.591Z,90.28
2019-02-17T07:09:04.774Z,89.12
2019-02-17T07:10:02.845Z,88.07
2019-02-17T07:11:03.143Z,87.65
2019-02-17T07:12:03.340Z,87.23
2019-02-17T07:13:04.729Z,87.33
2019-02-17T07:14:03.698Z,87.27
2019-02-17T07:15:03.976Z,86.70
2019-02-17T07:16:04.027Z,87.05
2019-02-17T07:17:04.161Z,86.91
2019-02-17T07:18:04.322Z,87.23
2019-02-17T07:19:04.529Z,87.44
2019-02-17T07:20:05.484Z,86.38
2019-02-17T07:21:04.952Z,87.86
2019-02-17T07:22:05.929Z,88.77
2019-02-17T07:23:05.900Z,88.56
2019-02-17T07:24:05.495Z,88.35
2019-02-17T07:25:05.753Z,88.87
2019-02-17T07:26:05.974Z,89.40
2019-02-17T07:27:06.869Z,89.51
2019-02-17T07:28:06.922Z,89.25
2019-02-17T07:29:07.445Z,88.73
2019-02-17T07:30:06.736Z,89.68
2019-02-17T07:31:07.083Z,89.47
2019-02-17T07:32:07.243Z,89.22
2019-02-17T07:33:07.304Z,88.65
2019-02-17T07:34:07.525Z,87.28
2019-02-17T07:35:07.738Z,87.35
2019-02-17T07:36:07.898Z,86.40
2019-02-17T07:37:08.047Z,85.52
2019-02-17T07:38:08.271Z,85.62
2019-02-17T07:39:08.391Z,85.58
2019-02-17T07:40:17.310Z,84.91
2019-02-17T07:41:09.296Z,84.98
2019-02-17T07:42:09.692Z,85.08
2019-02-17T07:43:10.198Z,85.82
2019-02-17T07:44:09.160Z,84.91
2019-02-17T07:45:09.396Z,84.76
2019-02-17T07:46:09.534Z,84.30
2019-02-17T07:47:10.083Z,83.39
2019-02-17T07:48:09.873Z,81.67
2019-02-17T07:49:10.188Z,81.49
2019-02-17T07:50:10.203Z,80.16
2019-02-17T07:51:10.413Z,79.61
2019-02-17T07:52:11.476Z,79.88
2019-02-17T07:53:11.604Z,77.66
2019-02-17T07:54:11.024Z,77.48
2019-02-17T07:55:11.128Z,76.82
2019-02-17T07:56:11.508Z,75.64
2019-02-17T07:57:11.656Z,75.43
2019-02-17T07:58:12.431Z,74.87
2019-02-17T07:59:12.464Z,73.35
2019-02-17T08:00:12.024Z,71.83
2019-02-17T08:01:12.430Z,70.06
2019-02-17T08:02:12.428Z,69.51
2019-02-17T08:03:12.618Z,69.06
2019-02-17T08:04:12.788Z,68.75
2019-02-17T08:05:12.961Z,68.48
2019-02-17T08:06:13.118Z,67.51
2019-02-17T08:07:13.326Z,67.79
2019-02-17T08:08:13.523Z,66.52
2019-02-17T08:09:13.688Z,65.45
2019-02-17T08:10:13.773Z,65.94
2019-02-17T08:11:14.682Z,64.04
2019-02-17T08:12:14.256Z,63.68
2019-02-17T08:13:14.519Z,63.00
2019-02-17T08:14:15.306Z,62.48
2019-02-17T08:15:14.770Z,60.39
2019-02-17T08:16:14.869Z,61.60
2019-02-17T08:17:15.130Z,61.29
2019-02-17T08:18:16.222Z,61.47
2019-02-17T08:19:16.408Z,61.47
2019-02-17T08:20:16.419Z,58.86
2019-02-17T08:21:15.789Z,58.63
2019-02-17T08:22:15.904Z,59.42
2019-02-17T08:23:16.031Z,58.98
2019-02-17T08:24:16.161Z,59.27
2019-02-17T08:25:21.749Z,56.85
2019-02-17T08:26:18.403Z,57.26
2019-02-17T08:27:16.632Z,54.66
2019-02-17T08:28:16.796Z,53.59
2019-02-17T08:29:16.895Z,54.72
2019-02-17T08:30:17.123Z,54.02
2019-02-17T08:31:17.396Z,53.61
2019-02-17T08:32:17.534Z,53.92
2019-02-17T08:33:17.658Z,55.54
2019-02-17T08:34:17.777Z,55.18
2019-02-17T08:35:17.912Z,53.23
2019-02-17T08:36:18.163Z,53.03
2019-02-17T08:37:18.263Z,53.12
2019-02-17T08:38:18.523Z,53.95
2019-02-17T08:39:18.664Z,51.98
2019-02-17T08:40:18.858Z,52.77
2019-02-17T08:41:18.973Z,52.28
2019-02-17T08:42:19.238Z,52.92
2019-02-17T08:43:19.334Z,52.28
2019-02-17T08:44:19.601Z,52.61
2019-02-17T08:45:19.824Z,52.28
2019-02-17T08:46:19.997Z,52.00
2019-02-17T08:47:20.107Z,53.64
2019-02-17T08:48:20.240Z,52.41
2019-02-17T08:49:20.382Z,53.36
2019-02-17T08:50:20.515Z,52.15
2019-02-17T08:51:21.350Z,54.08
2019-02-17T08:52:20.851Z,54.49
2019-02-17T08:53:21.001Z,53.38
2019-02-17T08:54:21.079Z,55.64
2019-02-17T08:55:21.307Z,54.08
2019-02-17T08:56:21.547Z,53.66
2019-02-17T08:57:21.671Z,53.23
2019-02-17T08:58:21.808Z,51.85
2019-02-17T08:59:23.002Z,53.41
2019-02-17T09:15:35.115Z,48.42
2019-02-17T09:16:35.353Z,48.19
2019-02-17T09:17:35.478Z,49.11
2019-02-17T09:18:35.700Z,49.50
2019-02-17T09:19:35.825Z,48.76
2019-02-17T09:20:36.058Z,47.11
2019-02-17T09:21:36.371Z,47.08
2019-02-17T09:22:36.451Z,45.65
2019-02-17T09:23:36.607Z,45.94
2019-02-17T09:24:36.787Z,46.43
2019-02-17T09:25:36.975Z,45.51
2019-02-17T09:26:37.183Z,47.71
2019-02-17T09:27:37.311Z,44.63
2019-02-17T10:10:29.775Z,30.51
2019-02-17T10:11:39.490Z,30.49
2019-02-17T10:12:30.172Z,28.47
2019-02-17T10:13:30.379Z,26.75
2019-02-17T10:14:30.472Z,25.78
2019-02-17T10:15:30.705Z,28.30
2019-02-17T10:16:30.874Z,28.28
2019-02-17T10:17:31.027Z,25.57
2019-02-17T10:18:31.146Z,27.15
2019-02-17T10:19:31.384Z,26.32
2019-02-17T10:20:31.562Z,23.95
2019-02-17T10:21:32.844Z,25.89
2019-02-17T10:22:33.069Z,26.25
2019-02-17T10:23:33.263Z,24.57
2019-02-17T10:24:33.478Z,25.81
2019-02-17T10:25:33.715Z,25.41
2019-02-17T10:26:33.927Z,25.91
2019-02-17T10:27:35.133Z,24.79
2019-02-17T10:28:42.170Z,25.82
2019-02-17T10:29:36.464Z,27.59
2019-02-17T10:30:34.632Z,27.57
2019-02-17T10:31:34.852Z,25.87
2019-02-17T10:32:38.999Z,24.97
2019-02-17T10:33:36.294Z,24.30
2019-02-17T10:34:35.970Z,26.15
2019-02-17T10:35:35.751Z,26.34
2019-02-17T10:36:35.885Z,26.42
2019-02-17T10:37:35.982Z,27.62
2019-02-17T10:38:36.215Z,26.14
2019-02-17T10:39:37.184Z,27.76
2019-02-17T10:40:36.765Z,28.17
2019-02-17T10:41:36.778Z,29.34
2019-02-17T10:42:37.419Z,25.84
2019-02-17T10:43:37.005Z,26.81
2019-02-17T10:44:37.265Z,25.65
2019-02-17T10:45:37.569Z,23.74
2019-02-17T10:46:37.555Z,24.58
2019-02-17T10:47:37.830Z,25.47
2019-02-17T10:48:38.043Z,23.55
2019-02-17T10:49:38.075Z,24.62
2019-02-17T10:50:38.353Z,24.02
2019-02-17T10:51:38.436Z,23.19
2019-02-17T10:52:40.145Z,22.04
2019-02-17T10:53:39.258Z,25.83
2019-02-17T10:54:39.594Z,25.62
2019-02-17T10:55:39.317Z,26.14
2019-02-17T10:56:39.459Z,25.90
2019-02-17T10:57:39.646Z,25.98
2019-02-17T10:58:40.742Z,24.85
2019-02-17T10:59:42.187Z,23.74
2019-02-17T11:30:33.890Z,20.16
2019-02-17T11:31:35.698Z,21.35
2019-02-17T11:32:36.216Z,20.25
2019-02-17T11:33:35.404Z,20.43
2019-02-17T11:34:35.617Z,20.73
2019-02-17T11:35:35.872Z,20.81
2019-02-17T11:36:35.997Z,21.01
2019-02-17T11:37:36.219Z,19.71
2019-02-17T11:38:36.425Z,20.59
2019-02-17T11:39:36.692Z,20.21
2019-02-17T11:40:36.839Z,20.42
2019-02-17T11:41:36.950Z,19.42
2019-02-17T11:42:38.288Z,20.79
2019-02-17T11:43:37.432Z,21.39
2019-02-17T11:44:37.584Z,20.89
2019-02-17T11:45:37.726Z,21.78
2019-02-17T11:46:37.850Z,19.41
2019-02-17T11:47:38.077Z,22.59
2019-02-17T11:48:38.340Z,20.50
2019-02-17T11:49:38.546Z,20.60
2019-02-17T11:50:38.687Z,21.19
2019-02-17T11:51:38.804Z,21.81
2019-02-17T11:52:39.093Z,20.41
2019-02-17T11:53:39.315Z,21.48
2019-02-17T11:54:40.268Z,21.10
2019-02-17T11:55:39.670Z,21.20
2019-02-17T11:56:39.836Z,22.78
2019-02-17T11:57:39.930Z,21.89
2019-02-17T11:58:40.160Z,20.87
2019-02-17T11:59:40.588Z,19.38
2019-02-17T12:00:40.540Z,20.76
2019-02-17T12:01:40.851Z,20.38
2019-02-17T12:02:41.026Z,20.86
2019-02-17T12:03:41.121Z,19.18
2019-02-17T12:04:41.454Z,19.09
2019-02-17T12:05:41.654Z,19.37
2019-02-17T12:06:41.862Z,17.68
2019-02-17T12:07:42.043Z,19.54
2019-02-17T12:08:42.299Z,18.05
2019-02-17T12:09:42.472Z,18.06
2019-02-17T12:10:42.665Z,17.96
2019-02-17T12:11:42.985Z,17.76
2019-02-17T12:12:43.215Z,16.56
2019-02-17T12:13:43.562Z,18.14
2019-02-17T12:14:43.293Z,18.06
2019-02-17T12:15:44.176Z,18.66
2019-02-17T12:16:43.635Z,18.57
2019-02-17T12:17:43.997Z,19.77
2019-02-17T12:18:44.125Z,19.27
2019-02-17T12:19:44.448Z,18.69
2019-02-17T12:20:44.445Z,18.01
2019-02-17T12:21:44.548Z,19.16
2019-02-17T12:22:44.917Z,20.15
2019-02-17T12:23:45.007Z,20.95
2019-02-17T12:24:45.106Z,20.35
2019-02-17T12:25:45.385Z,20.87
2019-02-17T12:26:45.552Z,21.09
2019-02-17T12:27:45.690Z,21.88
2019-02-17T12:28:45.949Z,21.09
2019-02-17T12:29:46.060Z,22.78
2019-02-17T12:30:46.180Z,22.56
2019-02-17T12:31:46.426Z,20.87
2019-02-17T12:32:46.566Z,22.80
2019-02-17T12:33:46.801Z,22.09
2019-02-17T12:34:47.074Z,22.03
2019-02-17T12:35:47.207Z,22.23
2019-02-17T12:36:47.341Z,22.33
2019-02-17T12:37:47.584Z,23.05
2019-02-17T12:38:47.688Z,22.96
2019-02-17T12:39:47.809Z,23.28
2019-02-17T12:40:48.059Z,24.16
2019-02-17T12:41:48.133Z,23.22
2019-02-17T12:42:48.358Z,21.41
2019-02-17T12:43:48.558Z,22.30
2019-02-17T12:44:48.774Z,22.41
2019-02-17T12:45:49.021Z,22.83
2019-02-17T13:06:23.815Z,23.39
2019-02-17T13:07:25.985Z,22.10
2019-02-17T13:08:33.576Z,22.08
2019-02-17T13:09:25.015Z,21.08
2019-02-17T13:10:26.452Z,20.87
2019-02-17T13:11:25.948Z,19.26
2019-02-17T13:12:25.399Z,18.86
2019-02-17T13:13:26.903Z,20.49
2019-02-17T13:14:27.325Z,20.21
2019-02-17T13:15:25.814Z,23.91
2019-02-17T13:16:25.931Z,22.25
2019-02-17T13:17:26.296Z,22.45
2019-02-17T13:18:26.450Z,23.23
2019-02-17T13:19:26.763Z,23.71
2019-02-17T13:20:27.505Z,21.90
2019-02-17T13:21:28.776Z,21.31
2019-02-17T13:22:27.447Z,23.75
2019-02-17T13:23:27.388Z,22.97
2019-02-17T13:24:27.933Z,23.46
2019-02-17T13:25:27.907Z,23.34
2019-02-17T13:26:27.891Z,21.44
2019-02-17T13:27:27.944Z,22.14
2019-02-17T13:28:28.498Z,21.95
2019-02-17T13:29:28.592Z,21.06
2019-02-17T13:30:28.520Z,22.02
2019-02-17T13:31:29.215Z,20.92
2019-02-17T13:32:29.536Z,22.85
2019-02-17T13:33:38.496Z,23.15
2019-02-17T13:34:30.330Z,23.07
2019-02-17T13:35:30.026Z,22.14
2019-02-17T13:36:32.358Z,22.73
2019-02-17T13:37:30.363Z,21.47
2019-02-17T13:38:31.231Z,22.05
2019-02-17T13:39:30.772Z,21.04
2019-02-17T13:40:30.431Z,21.14
2019-02-17T13:41:30.547Z,23.13
2019-02-17T13:42:30.735Z,20.73
2019-02-17T13:43:32.202Z,22.49
2019-02-17T13:44:31.793Z,21.73
2019-02-17T13:45:32.643Z,23.05
2019-02-17T13:46:32.424Z,23.04
2019-02-17T13:47:32.195Z,23.65
2019-02-17T13:48:32.420Z,24.07
2019-02-17T13:49:32.578Z,23.74
2019-02-17T13:50:32.705Z,23.12
2019-02-17T13:51:32.423Z,22.28
2019-02-17T13:52:33.466Z,22.08
2019-02-17T13:53:34.927Z,20.87
2019-02-17T13:54:34.140Z,21.06
2019-02-17T13:55:33.331Z,22.56
2019-02-17T13:56:33.316Z,21.28
2019-02-17T13:57:34.154Z,22.23
2019-02-17T13:58:34.755Z,23.62
2019-02-17T13:59:33.741Z,22.22
2019-02-17T14:00:33.797Z,22.91
2019-02-17T14:01:34.171Z,22.89
2019-02-17T14:02:34.255Z,22.73
2019-02-17T14:03:34.267Z,22.03
2019-02-17T14:15:17.387Z,28.31
2019-02-17T14:17:03.468Z,22.96
2019-02-17T14:18:03.663Z,23.54
2019-02-17T14:19:03.861Z,23.25
2019-02-17T14:20:04.062Z,24.10
2019-02-17T14:21:04.247Z,24.30
2019-02-17T14:22:04.439Z,24.38
2019-02-17T14:23:04.632Z,22.36
2019-02-17T14:28:43.216Z,23.26
2019-02-17T14:29:42.519Z,22.85
2019-02-17T14:30:41.693Z,23.14
2019-02-17T14:31:42.018Z,23.32
2019-02-17T14:32:41.405Z,23.00
2019-02-17T14:46:17.117Z,23.18
2019-02-17T14:47:17.427Z,25.00
2019-02-17T14:48:17.521Z,24.40
2019-02-17T14:50:43.359Z,24.29
2019-02-17T14:51:31.252Z,24.81
2019-02-17T14:52:31.525Z,23.61
2019-02-17T14:53:31.637Z,23.38
2019-02-17T14:55:09.195Z,22.98
2019-02-17T14:55:32.014Z,24.08
2019-02-17T14:56:32.216Z,23.68
2019-02-17T14:57:32.471Z,23.07
2019-02-17T14:58:32.686Z,23.56
2019-02-17T14:59:32.893Z,23.38
2019-02-17T15:00:33.100Z,24.61
2019-02-17T15:01:33.365Z,25.01
2019-02-17T15:02:33.482Z,24.79
2019-02-17T15:03:33.591Z,23.97
2019-02-17T15:04:33.802Z,23.77
2019-02-17T15:05:34.022Z,23.68
2019-02-17T15:06:34.253Z,23.97
2019-02-17T15:07:34.632Z,24.60
2019-02-17T15:08:34.601Z,25.31
2019-02-17T15:09:34.721Z,24.99
2019-02-17T15:10:34.858Z,25.40
2019-02-17T15:11:35.025Z,24.58
2019-02-17T15:12:36.444Z,23.37
2019-02-17T15:13:36.510Z,26.21
2019-02-17T15:14:36.682Z,24.52
2019-02-17T15:15:36.868Z,26.14
2019-02-17T15:16:37.065Z,26.27
2019-02-17T15:17:37.318Z,26.61
2019-02-17T15:18:37.497Z,27.72
2019-02-17T15:19:37.636Z,27.62
2019-02-17T15:20:37.800Z,27.93
2019-02-17T15:21:37.920Z,27.63
2019-02-17T15:22:38.196Z,27.03
2019-02-17T15:23:38.347Z,28.74
2019-02-17T15:24:38.484Z,27.93
2019-02-17T15:25:38.608Z,27.55
2019-02-17T15:26:38.814Z,27.86
2019-02-17T15:27:39.009Z,28.15
2019-02-17T15:28:39.140Z,28.15
2019-02-17T15:29:39.258Z,29.27
2019-02-17T15:30:39.460Z,29.07
2019-02-17T15:31:39.670Z,28.65
2019-02-17T15:32:40.084Z,28.36
2019-02-17T15:33:40.001Z,29.26
2019-02-17T15:34:40.214Z,28.94
2019-02-17T15:35:40.343Z,28.34
2019-02-17T15:36:40.543Z,28.85
2019-02-17T15:37:40.724Z,28.47
2019-02-17T15:38:40.923Z,29.07
2019-02-17T15:39:41.135Z,29.55
2019-02-17T15:40:41.309Z,27.63
2019-02-17T15:41:41.498Z,27.82
2019-02-17T15:42:43.179Z,27.72
2019-02-17T15:43:42.910Z,27.43
2019-02-17T15:44:42.057Z,27.75
2019-02-17T15:45:42.249Z,28.97
2019-02-17T15:46:42.399Z,28.14
2019-02-17T15:47:42.567Z,27.95
2019-02-17T15:48:42.744Z,27.43
2019-02-17T15:49:42.893Z,27.43
2019-02-17T15:50:43.067Z,28.64
2019-02-17T15:51:43.220Z,28.38
2019-02-17T15:52:43.388Z,28.85
2019-02-17T15:53:43.591Z,27.93
2019-02-17T15:54:43.808Z,28.94
2019-02-17T15:55:44.002Z,28.26
2019-02-17T15:56:44.202Z,28.69
2019-02-17T15:57:44.421Z,29.71
2019-02-17T15:58:45.110Z,28.61
2019-02-17T15:59:45.757Z,30.44
2019-02-17T16:00:44.934Z,30.05
2019-02-17T16:01:45.134Z,30.98
2019-02-17T16:02:45.329Z,31.19
2019-02-17T16:03:45.532Z,31.30
2019-02-17T16:04:45.745Z,31.63
2019-02-17T16:05:45.928Z,33.06
2019-02-17T16:06:46.128Z,32.37
2019-02-17T16:07:46.312Z,33.18
2019-02-17T16:08:46.519Z,33.62
2019-02-17T16:09:46.743Z,34.22
2019-02-17T16:10:47.030Z,33.94
2019-02-17T16:11:47.089Z,34.16
2019-02-17T16:12:47.297Z,34.16
2019-02-17T16:13:47.499Z,34.75
2019-02-17T16:14:48.010Z,34.36
2019-02-17T16:15:48.013Z,35.49
2019-02-17T16:16:48.128Z,34.58
2019-02-17T16:17:48.347Z,35.09
2019-02-17T16:18:48.560Z,34.59
2019-02-17T16:19:48.768Z,35.51
2019-02-17T16:20:48.960Z,35.00
2019-02-17T16:21:49.182Z,36.22
2019-02-17T16:22:49.472Z,35.92
2019-02-17T16:23:49.586Z,35.42
2019-02-17T16:24:49.793Z,35.32
2019-02-17T16:25:50.007Z,37.16
2019-02-17T16:26:50.186Z,36.44
2019-02-17T16:27:50.402Z,36.77
2019-02-17T16:28:50.639Z,36.97
2019-02-17T16:29:50.840Z,36.56
2019-02-17T16:30:51.027Z,36.88
2019-02-17T16:31:51.239Z,37.09
2019-02-17T16:32:52.437Z,36.68
2019-02-17T16:33:51.662Z,36.99
2019-02-17T16:34:51.740Z,37.40
2019-02-17T16:35:52.046Z,37.21
2019-02-17T16:36:52.140Z,37.31
2019-02-17T16:37:52.350Z,38.55
2019-02-17T16:38:52.563Z,37.84
2019-02-17T16:39:52.785Z,39.06
2019-02-17T16:40:52.995Z,38.76
2019-02-17T16:41:53.225Z,39.26
2019-02-17T16:42:53.433Z,39.28
2019-02-17T16:43:53.637Z,39.39
2019-02-17T16:44:53.826Z,38.69
2019-02-17T16:45:54.013Z,39.81
2019-02-17T16:46:54.211Z,39.42
2019-02-17T16:47:54.402Z,39.53
2019-02-17T16:48:54.608Z,40.44
2019-02-17T16:49:54.799Z,39.83
2019-02-17T16:50:55.016Z,41.16
2019-02-17T16:51:55.194Z,41.26
2019-02-17T16:52:55.460Z,42.30
2019-02-17T16:53:55.651Z,42.20
2019-02-17T16:54:55.884Z,43.55
2019-02-17T16:55:56.079Z,44.17
2019-02-17T16:56:56.324Z,43.16
2019-02-17T16:57:56.423Z,44.51
2019-02-17T16:58:56.648Z,45.12
2019-02-17T16:59:56.824Z,44.31
2019-02-17T17:00:57.029Z,46.58
2019-02-17T17:01:57.254Z,47.11
2019-02-17T17:02:57.341Z,45.17
2019-02-17T17:03:57.545Z,46.83
2019-02-17T17:04:57.752Z,46.52
2019-02-17T17:05:57.952Z,46.52
2019-02-17T17:06:58.151Z,46.83
2019-02-17T17:07:58.357Z,47.77
2019-02-17T17:08:58.587Z,46.54
2019-02-17T17:09:58.782Z,46.54
2019-02-17T17:10:59.007Z,48.31
2019-02-17T17:11:59.229Z,47.69
2019-02-17T17:12:59.429Z,50.99
2019-02-17T17:13:59.656Z,50.07
2019-02-17T17:14:59.849Z,49.69
2019-02-17T17:16:00.043Z,49.69
2019-02-17T17:17:00.234Z,51.87
2019-02-17T17:18:00.424Z,50.02
2019-02-17T17:19:00.633Z,49.52
2019-02-17T17:20:00.811Z,52.51
2019-02-17T17:21:01.054Z,52.43
2019-02-17T17:22:01.316Z,52.43
2019-02-17T17:23:01.407Z,54.07
2019-02-17T17:24:01.608Z,53.69
2019-02-17T17:26:50.424Z,56.41
2019-02-17T17:27:50.683Z,55.72
2019-02-17T17:28:50.821Z,57.68
2019-02-17T17:29:58.580Z,56.75
2019-02-17T17:30:51.070Z,57.06
2019-02-17T17:31:51.257Z,58.53
2019-02-17T17:32:51.461Z,58.73
2019-02-17T17:33:51.641Z,57.93
2019-02-17T17:34:58.595Z,58.65
2019-02-17T17:35:53.059Z,58.97
2019-02-17T17:36:52.241Z,58.89
2019-02-17T17:37:52.434Z,60.54
2019-02-17T17:38:52.713Z,61.47
2019-02-17T17:40:46.990Z,60.36
2019-02-17T17:40:53.130Z,59.02
2019-02-17T17:44:21.319Z,61.73
2019-02-17T17:44:31.611Z,62.46
2019-02-17T17:45:31.720Z,63.69
2019-02-17T17:56:18.933Z,66.50
2019-02-17T17:58:05.774Z,67.33
2019-02-17T17:59:06.069Z,65.36
2019-02-17T18:00:06.146Z,66.74
2019-02-17T18:05:16.515Z,66.87
2019-02-17T18:05:53.761Z,67.42
2019-02-17T18:06:53.731Z,68.15
2019-02-17T18:08:02.500Z,68.77
2019-02-17T18:08:54.046Z,68.90
2019-02-17T18:09:54.265Z,70.11
2019-02-17T18:10:54.464Z,69.84
2019-02-17T18:11:54.670Z,70.25
2019-02-17T18:12:54.890Z,70.36
2019-02-17T18:13:55.115Z,71.11
2019-02-17T18:14:55.382Z,70.70
2019-02-17T18:15:55.458Z,70.07
2019-02-17T18:16:55.675Z,70.49
2019-02-17T18:17:55.882Z,70.80
2019-02-17T18:18:56.063Z,70.42
2019-02-17T18:19:56.272Z,70.52
2019-02-17T18:20:56.471Z,71.77
2019-02-17T18:21:56.593Z,71.97
2019-02-17T18:22:56.749Z,71.87
2019-02-17T18:23:56.917Z,71.87
2019-02-17T18:24:57.104Z,72.11
2019-02-17T18:25:57.282Z,70.10
2019-02-17T18:26:57.446Z,70.25
2019-02-17T18:27:57.587Z,70.45
2019-02-17T18:28:57.742Z,70.48
2019-02-17T18:29:57.932Z,72.77
2019-02-17T18:30:58.074Z,73.18
2019-02-17T18:31:58.213Z,74.01
2019-02-17T18:32:58.478Z,74.40
2019-02-17T18:33:58.566Z,74.01
